Time;durP1;ratioP1;P1;durP2;ratioP2;P2;SDS_P1;SDS_P2;PMS_P1;PMS_P2;Temp;Humidity;BMP_temperature;BMP_pressure;BME280_temperature;BME280_humidity;BME280_pressure;Samples;Min_cycle;Max_cycle;Signal;HPM_P1;HPM_P2
2023/04/24 00:01:29;;;;;;;63.03;32.90;;;7.90;99.90;;;;;;5076209;28;20025;-78
2023/04/24 00:03:59;;;;;;;68.47;36.95;;;7.80;99.90;;;;;;5076598;28;20048;-77
2023/04/24 00:06:32;;;;;;;77.90;42.78;;;7.90;99.90;;;;;;5074792;28;20024;-78
2023/04/24 00:09:02;;;;;;;66.35;37.45;;;7.80;99.90;;;;;;5076327;28;20024;-77
2023/04/24 00:11:28;;;;;;;62.30;35.90;;;7.70;99.90;;;;;;5076020;28;20495;-78
2023/04/24 00:13:53;;;;;;;55.42;31.77;;;7.70;99.90;;;;;;5075954;28;20038;-76
2023/04/24 00:16:19;;;;;;;30.63;20.15;;;7.70;99.90;;;;;;5074622;28;20012;-77
2023/04/24 00:18:45;;;;;;;21.90;15.73;;;7.60;99.90;;;;;;5074581;28;20396;-76
2023/04/24 00:21:11;;;;;;;16.52;12.45;;;7.60;99.90;;;;;;5074696;28;20082;-78
2023/04/24 00:23:36;;;;;;;19.52;12.38;;;7.60;99.90;;;;;;5075891;28;20385;-77
2023/04/24 00:26:02;;;;;;;15.30;11.73;;;7.60;99.90;;;;;;5076030;28;20025;-77
2023/04/24 00:28:28;;;;;;;16.80;12.23;;;7.70;99.90;;;;;;5075823;28;20021;-78
2023/04/24 00:30:53;;;;;;;15.35;11.48;;;7.80;99.90;;;;;;5074798;28;20030;-76
2023/04/24 00:33:19;;;;;;;17.45;11.80;;;7.90;99.90;;;;;;5074089;28;20045;-78
2023/04/24 00:35:45;;;;;;;16.13;11.32;;;7.90;99.90;;;;;;5075629;28;20021;-77
2023/04/24 00:38:11;;;;;;;17.35;11.45;;;7.90;99.90;;;;;;5075444;28;20027;-77
2023/04/24 00:40:36;;;;;;;18.00;11.90;;;7.90;99.90;;;;;;5074103;28;20037;-76
2023/04/24 00:43:02;;;;;;;17.85;12.32;;;8.00;99.90;;;;;;5074307;28;20027;-77
2023/04/24 00:45:28;;;;;;;25.25;17.15;;;8.00;99.90;;;;;;5074142;28;20013;-77
2023/04/24 00:47:53;;;;;;;21.27;13.45;;;7.80;99.90;;;;;;5075302;28;20025;-76
2023/04/24 00:50:21;;;;;;;24.42;13.88;;;7.70;99.90;;;;;;5075374;28;20025;-77
2023/04/24 00:52:47;;;;;;;19.10;13.15;;;7.60;99.90;;;;;;5075250;28;20036;-77
2023/04/24 00:55:12;;;;;;;18.38;12.73;;;7.50;99.90;;;;;;5074009;28;20394;-78
2023/04/24 00:57:38;;;;;;;20.48;14.10;;;7.60;99.90;;;;;;5073723;28;20028;-78
2023/04/24 01:00:07;;;;;;;22.98;14.80;;;7.40;99.90;;;;;;5073952;28;20067;-78
2023/04/24 01:02:34;;;;;;;21.38;14.93;;;7.40;99.90;;;;;;5074823;28;20017;-77
2023/04/24 01:05:00;;;;;;;21.23;14.68;;;7.30;99.90;;;;;;5074954;28;20103;-76
2023/04/24 01:07:26;;;;;;;19.48;12.93;;;7.30;99.90;;;;;;5074962;28;20024;-78
2023/04/24 01:09:52;;;;;;;17.60;11.73;;;7.30;99.90;;;;;;5074922;28;20017;-77
2023/04/24 01:12:19;;;;;;;21.65;12.02;;;7.40;99.90;;;;;;5074812;28;20389;-77
2023/04/24 01:14:45;;;;;;;18.58;12.30;;;7.40;99.90;;;;;;5073501;28;20089;-77
2023/04/24 01:17:11;;;;;;;18.85;11.60;;;7.50;99.90;;;;;;5074658;28;20024;-78
2023/04/24 01:19:38;;;;;;;14.60;11.10;;;7.70;99.90;;;;;;5073437;28;20106;-76
2023/04/24 01:22:10;;;;;;;17.25;12.32;;;7.80;99.90;;;;;;5073305;28;20527;-78
2023/04/24 01:24:36;;;;;;;31.60;15.95;;;7.90;99.90;;;;;;5073303;28;20025;-78
2023/04/24 01:27:02;;;;;;;40.90;20.65;;;7.90;99.90;;;;;;5074543;28;20048;-77
2023/04/24 01:29:27;;;;;;;16.67;11.60;;;7.90;99.90;;;;;;5074387;28;20448;-77
2023/04/24 01:31:54;;;;;;;17.10;11.65;;;8.00;99.90;;;;;;5072850;28;20109;-78
2023/04/24 01:34:20;;;;;;;18.83;11.60;;;8.00;99.90;;;;;;5074322;28;20389;-77
2023/04/24 01:36:47;;;;;;;18.25;11.57;;;8.20;99.90;;;;;;5072984;28;20020;-78
2023/04/24 01:39:13;;;;;;;17.92;11.63;;;8.20;99.90;;;;;;5074284;28;20032;-78
2023/04/24 01:41:38;;;;;;;17.92;12.27;;;8.20;99.90;;;;;;5072873;28;20048;-77
2023/04/24 01:44:04;;;;;;;18.42;11.75;;;8.10;99.90;;;;;;5074534;28;20021;-77
2023/04/24 01:46:31;;;;;;;18.33;12.05;;;8.00;99.90;;;;;;5074271;28;20143;-77
2023/04/24 01:48:59;;;;;;;15.82;10.70;;;7.90;99.90;;;;;;5074148;28;20021;-77
2023/04/24 01:51:25;;;;;;;16.90;11.30;;;7.90;99.90;;;;;;5074170;28;20024;-76
2023/04/24 01:53:50;;;;;;;18.52;11.05;;;7.80;97.70;;;;;;5075389;28;20028;-78
2023/04/24 01:56:17;;;;;;;19.55;13.55;;;7.70;96.70;;;;;;5093009;28;20023;-77
2023/04/24 01:58:43;;;;;;;16.40;10.60;;;7.60;97.40;;;;;;5092878;28;20024;-78
2023/04/24 02:01:09;;;;;;;15.45;10.52;;;7.50;99.90;;;;;;5094211;28;20028;-77
2023/04/24 02:03:34;;;;;;;15.30;11.38;;;7.50;99.90;;;;;;5092889;28;20016;-77
2023/04/24 02:06:00;;;;;;;15.82;12.25;;;7.40;99.90;;;;;;5094244;28;20032;-77
2023/04/24 02:08:26;;;;;;;14.40;10.88;;;7.40;99.90;;;;;;5092770;28;20469;-76
2023/04/24 02:10:51;;;;;;;16.35;11.95;;;7.30;99.90;;;;;;5093849;28;20078;-78
2023/04/24 02:13:17;;;;;;;17.30;12.15;;;7.30;99.90;;;;;;5092826;28;20047;-77
2023/04/24 02:15:42;;;;;;;19.70;13.88;;;7.30;99.90;;;;;;5093886;28;20020;-76
2023/04/24 02:18:08;;;;;;;19.45;11.50;;;7.30;99.90;;;;;;5092622;28;20450;-76
2023/04/24 02:20:35;;;;;;;13.73;10.68;;;7.20;99.90;;;;;;5092449;28;20036;-76
2023/04/24 02:23:01;;;;;;;14.40;11.77;;;7.20;99.90;;;;;;5092496;28;20013;-76
2023/04/24 02:25:26;;;;;;;16.52;11.48;;;7.10;99.90;;;;;;5093804;28;20028;-76
2023/04/24 02:27:52;;;;;;;18.58;12.05;;;7.00;99.90;;;;;;5093804;28;20054;-77
2023/04/24 02:30:17;;;;;;;20.95;11.77;;;7.00;99.90;;;;;;5092592;28;20016;-76
2023/04/24 02:32:43;;;;;;;19.00;11.57;;;7.00;99.90;;;;;;5093074;28;20052;-77
2023/04/24 02:35:09;;;;;;;17.20;12.18;;;6.80;99.90;;;;;;5093608;28;20016;-77
2023/04/24 02:37:35;;;;;;;17.70;12.48;;;6.80;99.90;;;;;;5093610;28;20031;-77
2023/04/24 02:40:00;;;;;;;20.33;12.38;;;6.80;99.90;;;;;;5092404;28;20028;-77
2023/04/24 02:42:26;;;;;;;18.08;11.75;;;6.60;99.90;;;;;;5093556;28;20020;-76
2023/04/24 02:44:51;;;;;;;20.10;13.23;;;6.60;99.90;;;;;;5093568;28;20073;-76
2023/04/24 02:47:17;;;;;;;18.08;12.40;;;6.60;99.90;;;;;;5092248;28;20022;-77
2023/04/24 02:49:43;;;;;;;19.90;13.93;;;6.60;99.90;;;;;;5092225;28;20020;-76
2023/04/24 02:52:08;;;;;;;18.42;12.60;;;6.50;99.90;;;;;;5092892;28;20028;-76
2023/04/24 02:54:34;;;;;;;19.95;12.65;;;6.40;99.90;;;;;;5092088;28;20032;-76
2023/04/24 02:57:00;;;;;;;18.80;12.65;;;6.40;99.90;;;;;;5093336;28;20076;-77
2023/04/24 02:59:28;;;;;;;17.75;13.38;;;6.30;99.90;;;;;;5093352;28;20119;-77
2023/04/24 03:01:54;;;;;;;21.08;13.75;;;6.20;99.90;;;;;;5093407;28;20066;-77
2023/04/24 03:04:20;;;;;;;17.73;13.35;;;6.20;99.90;;;;;;5093349;28;20485;-76
2023/04/24 03:06:46;;;;;;;17.80;12.52;;;6.10;99.90;;;;;;5093138;28;20024;-76
2023/04/24 03:09:11;;;;;;;17.38;12.07;;;6.10;99.90;;;;;;5093433;28;20065;-77
2023/04/24 03:11:37;;;;;;;16.27;11.95;;;6.00;99.90;;;;;;5091881;28;20027;-77
2023/04/24 03:14:02;;;;;;;19.13;12.02;;;5.90;99.90;;;;;;5093274;28;20486;-77
2023/04/24 03:16:28;;;;;;;23.15;13.50;;;6.00;99.90;;;;;;5093200;28;20024;-76
2023/04/24 03:18:54;;;;;;;16.17;12.30;;;5.90;99.90;;;;;;5093141;28;20067;-77
2023/04/24 03:21:19;;;;;;;20.77;13.85;;;5.90;99.90;;;;;;5093157;28;20020;-77
2023/04/24 03:23:45;;;;;;;22.00;13.38;;;5.90;99.90;;;;;;5093253;28;20095;-77
2023/04/24 03:26:10;;;;;;;24.95;14.73;;;5.80;99.90;;;;;;5093227;28;20031;-76
2023/04/24 03:28:36;;;;;;;24.40;13.57;;;5.80;99.90;;;;;;5091772;28;20081;-76
2023/04/24 03:31:03;;;;;;;24.08;12.52;;;5.80;99.90;;;;;;5093181;28;20047;-76
2023/04/24 03:33:29;;;;;;;24.02;13.68;;;5.80;99.90;;;;;;5072002;28;20033;-77
2023/04/24 03:35:54;;;;;;;21.35;12.77;;;5.80;99.90;;;;;;5052689;28;20036;-77
2023/04/24 03:38:20;;;;;;;16.30;11.20;;;5.90;99.90;;;;;;5051521;28;20491;-76
2023/04/24 03:40:45;;;;;;;21.58;12.00;;;5.90;99.90;;;;;;5052689;28;20041;-76
2023/04/24 03:43:11;;;;;;;23.45;12.45;;;6.00;99.90;;;;;;5052712;28;20029;-76
2023/04/24 03:45:37;;;;;;;22.05;11.95;;;6.00;99.90;;;;;;5052614;28;20021;-76
2023/04/24 03:48:02;;;;;;;18.55;11.13;;;6.10;99.90;;;;;;5052680;28;20056;-77
2023/04/24 03:50:29;;;;;;;25.02;12.25;;;6.10;99.90;;;;;;5051281;28;20028;-76
2023/04/24 03:52:54;;;;;;;19.88;11.27;;;6.00;99.90;;;;;;5051404;28;20044;-76
2023/04/24 03:55:20;;;;;;;16.67;10.85;;;6.10;99.90;;;;;;5051531;28;20021;-77
2023/04/24 03:57:46;;;;;;;14.98;10.43;;;6.10;99.90;;;;;;5051307;28;20060;-77
2023/04/24 04:00:12;;;;;;;16.60;11.30;;;6.20;99.90;;;;;;5051133;28;20048;-77
2023/04/24 04:02:37;;;;;;;16.45;11.52;;;6.30;99.90;;;;;;5052666;28;20029;-77
2023/04/24 04:05:03;;;;;;;21.50;11.70;;;6.30;99.90;;;;;;5054050;28;20101;-77
2023/04/24 04:07:29;;;;;;;13.63;10.05;;;6.40;99.90;;;;;;5056211;28;20028;-76
2023/04/24 04:09:55;;;;;;;17.65;11.18;;;6.60;99.90;;;;;;5056010;28;20021;-76
2023/04/24 04:12:20;;;;;;;15.57;11.23;;;6.60;99.90;;;;;;5054814;28;20501;-76
2023/04/24 04:14:46;;;;;;;21.15;12.18;;;6.70;99.90;;;;;;5054690;28;20161;-76
2023/04/24 04:17:12;;;;;;;18.02;10.90;;;6.80;99.90;;;;;;5054641;28;20025;-77
2023/04/24 04:19:37;;;;;;;17.73;11.65;;;6.90;99.90;;;;;;5054395;28;20033;-78
2023/04/24 04:22:03;;;;;;;67.82;15.75;;;7.00;99.90;;;;;;5054591;28;20505;-78
2023/04/24 04:24:28;;;;;;;58.45;14.63;;;7.10;99.90;;;;;;5054412;28;20074;-78
2023/04/24 04:26:56;;;;;;;20.45;12.30;;;7.20;99.90;;;;;;5055695;28;20017;-77
2023/04/24 04:29:22;;;;;;;20.48;11.48;;;7.30;99.90;;;;;;5055914;28;20521;-76
2023/04/24 04:31:48;;;;;;;19.80;11.98;;;7.40;99.90;;;;;;5055272;28;20013;-76
2023/04/24 04:34:13;;;;;;;17.88;11.48;;;7.40;99.90;;;;;;5055571;28;20139;-77
2023/04/24 04:36:40;;;;;;;14.85;11.23;;;7.50;99.90;;;;;;5054688;28;20475;-76
2023/04/24 04:39:06;;;;;;;22.30;12.95;;;7.60;99.90;;;;;;5054901;28;20033;-77
2023/04/24 04:41:34;;;;;;;16.08;12.45;;;7.60;99.90;;;;;;5054249;28;20029;-77
2023/04/24 04:44:01;;;;;;;17.30;12.18;;;7.70;99.90;;;;;;5054138;28;20490;-78
2023/04/24 04:46:27;;;;;;;15.13;11.52;;;7.90;99.90;;;;;;5055442;28;20029;-77
2023/04/24 04:48:54;;;;;;;14.27;11.43;;;7.90;99.90;;;;;;5055360;28;20088;-78
2023/04/24 04:51:20;;;;;;;15.35;10.63;;;8.00;99.90;;;;;;5055293;28;20029;-77
2023/04/24 04:53:45;;;;;;;16.88;11.55;;;8.10;99.90;;;;;;5054645;28;20067;-77
2023/04/24 04:56:11;;;;;;;18.58;10.27;;;8.20;99.90;;;;;;5055206;28;20028;-76
2023/04/24 04:58:36;;;;;;;14.25;10.10;;;8.20;99.90;;;;;;5053702;28;20025;-78
2023/04/24 05:01:02;;;;;;;11.95;10.00;;;8.40;99.90;;;;;;5053690;28;20136;-78
2023/04/24 05:03:28;;;;;;;13.57;10.00;;;8.50;99.90;;;;;;5054841;28;20399;-78
2023/04/24 05:05:54;;;;;;;18.05;10.10;;;8.60;99.90;;;;;;5054848;28;20021;-76
2023/04/24 05:08:23;;;;;;;16.33;10.48;;;8.80;99.90;;;;;;5054270;28;20467;-76
2023/04/24 05:10:48;;;;;;;13.50;9.55;;;9.00;99.90;;;;;;5054852;28;20025;-77
2023/04/24 05:13:14;;;;;;;12.93;9.32;;;9.10;99.90;;;;;;5053629;28;20032;-77
2023/04/24 05:15:39;;;;;;;16.98;9.75;;;9.40;97.60;;;;;;5053445;28;20021;-78
2023/04/24 05:18:05;;;;;;;15.23;9.23;;;9.70;89.20;;;;;;5094711;28;20474;-77
2023/04/24 05:20:31;;;;;;;11.15;8.25;;;10.10;83.50;;;;;;5093665;28;20035;-76
2023/04/24 05:22:59;;;;;;;13.05;8.88;;;10.50;83.00;;;;;;5094148;28;20028;-77
2023/04/24 05:25:26;;;;;;;11.02;8.70;;;10.70;82.90;;;;;;5079553;28;20525;-78
2023/04/24 05:27:53;;;;;;;10.70;7.97;;;10.90;87.00;;;;;;5074221;28;20064;-77
2023/04/24 05:30:19;;;;;;;12.07;8.48;;;11.10;86.90;;;;;;5072942;28;20029;-77
2023/04/24 05:32:45;;;;;;;10.68;7.90;;;11.30;85.90;;;;;;5074032;28;20055;-77
2023/04/24 05:35:10;;;;;;;9.80;7.68;;;11.50;84.30;;;;;;5073096;28;20021;-78
2023/04/24 05:37:36;;;;;;;8.13;6.25;;;11.80;77.20;;;;;;5073654;28;20052;-77
2023/04/24 05:40:04;;;;;;;16.95;6.85;;;12.10;69.90;;;;;;5072274;28;20036;-78
2023/04/24 05:42:30;;;;;;;6.90;5.32;;;12.30;69.60;;;;;;5072859;28;20469;-78
2023/04/24 05:44:55;;;;;;;16.15;7.05;;;12.50;67.50;;;;;;5071265;28;20036;-78
2023/04/24 05:47:21;;;;;;;9.68;5.93;;;12.70;66.00;;;;;;5071799;28;20447;-77
2023/04/24 05:49:47;;;;;;;8.13;5.60;;;13.00;62.50;;;;;;5072637;28;20029;-77
2023/04/24 05:52:13;;;;;;;9.82;6.13;;;13.10;60.70;;;;;;5072561;28;20503;-79
2023/04/24 05:54:39;;;;;;;7.53;5.60;;;13.30;60.30;;;;;;5073910;28;20027;-79
2023/04/24 05:57:07;;;;;;;8.30;5.07;;;13.50;59.60;;;;;;5073985;28;20027;-77
2023/04/24 05:59:35;;;;;;;12.05;6.47;;;13.70;58.80;;;;;;5073062;28;20040;-78
2023/04/24 06:02:00;;;;;;;8.07;5.43;;;13.90;58.00;;;;;;5071835;28;20066;-78
2023/04/24 06:04:26;;;;;;;15.02;5.78;;;13.90;59.40;;;;;;5072956;28;20020;-78
2023/04/24 06:06:55;;;;;;;6.28;5.63;;;13.90;58.20;;;;;;5073000;28;20378;-77
2023/04/24 06:09:22;;;;;;;7.15;5.22;;;14.00;57.40;;;;;;5069073;28;20024;-77
2023/04/24 06:11:47;;;;;;;5.97;5.38;;;14.10;57.50;;;;;;5068549;28;20020;-77
2023/04/24 06:14:13;;;;;;;9.55;5.22;;;14.30;57.30;;;;;;5072809;28;20028;-79
2023/04/24 06:16:42;;;;;;;8.60;5.50;;;14.50;56.60;;;;;;5073483;28;20051;-77
2023/04/24 06:19:07;;;;;;;6.40;5.05;;;14.60;55.40;;;;;;5072244;28;20119;-78
2023/04/24 06:21:33;;;;;;;9.60;5.75;;;14.80;55.60;;;;;;5072255;28;20107;-79
2023/04/24 06:23:59;;;;;;;5.30;4.80;;;15.10;54.80;;;;;;5072295;28;20115;-79
2023/04/24 06:26:26;;;;;;;8.57;5.30;;;15.30;55.40;;;;;;5072181;28;20029;-78
2023/04/24 06:28:53;;;;;;;5.75;5.00;;;15.40;52.90;;;;;;5072620;28;20125;-79
2023/04/24 06:31:20;;;;;;;8.32;5.38;;;15.60;51.70;;;;;;5073386;28;20032;-78
2023/04/24 06:33:45;;;;;;;7.07;4.80;;;15.80;52.40;;;;;;5071959;28;20417;-79
2023/04/24 06:36:12;;;;;;;6.45;5.07;;;16.00;51.00;;;;;;5058991;28;20033;-77
2023/04/24 06:38:37;;;;;;;6.90;5.30;;;16.20;51.20;;;;;;5061871;28;20441;-78
2023/04/24 06:41:04;;;;;;;7.57;5.07;;;16.40;50.00;;;;;;5071955;28;20029;-79
2023/04/24 06:43:31;;;;;;;7.68;5.25;;;16.50;49.90;;;;;;5071500;28;20044;-79
2023/04/24 06:45:57;;;;;;;9.63;5.50;;;16.70;50.30;;;;;;5072739;28;20024;-79
2023/04/24 06:48:25;;;;;;;6.10;5.18;;;16.80;49.70;;;;;;5072605;28;20473;-79
2023/04/24 06:50:50;;;;;;;7.38;5.00;;;17.00;49.60;;;;;;5072811;28;20451;-79
2023/04/24 06:53:16;;;;;;;7.32;5.15;;;17.20;50.50;;;;;;5072511;28;20044;-79
2023/04/24 06:55:43;;;;;;;8.13;4.93;;;17.30;49.50;;;;;;5072373;28;20488;-79
2023/04/24 06:58:09;;;;;;;7.35;5.25;;;17.40;49.10;;;;;;5071101;28;20024;-80
2023/04/24 07:00:34;;;;;;;5.60;5.10;;;17.40;47.90;;;;;;5071102;28;20393;-79
2023/04/24 07:03:00;;;;;;;9.52;5.43;;;17.40;47.10;;;;;;5072642;28;20075;-79
2023/04/24 07:05:26;;;;;;;11.00;5.68;;;17.50;47.70;;;;;;5071471;28;20021;-79
2023/04/24 07:07:52;;;;;;;6.40;4.63;;;17.60;48.80;;;;;;5072156;28;20367;-79
2023/04/24 07:10:18;;;;;;;8.90;7.47;;;17.70;48.50;;;;;;5069518;28;20475;-79
2023/04/24 07:12:43;;;;;;;6.43;5.10;;;17.80;48.10;;;;;;5070671;28;20021;-79
2023/04/24 07:15:10;;;;;;;6.63;4.78;;;17.90;47.00;;;;;;5070729;28;20025;-79
2023/04/24 07:17:38;;;;;;;12.38;5.43;;;18.00;46.10;;;;;;5069192;28;20082;-79
2023/04/24 07:20:05;;;;;;;6.25;5.10;;;18.00;46.30;;;;;;5070596;28;20031;-79
2023/04/24 07:22:30;;;;;;;5.47;4.93;;;18.10;46.70;;;;;;5069265;28;20127;-79
2023/04/24 07:24:56;;;;;;;6.10;4.88;;;18.20;45.60;;;;;;5072517;28;20142;-79
2023/04/24 07:27:22;;;;;;;5.65;4.55;;;18.30;46.00;;;;;;5072555;28;20024;-79
2023/04/24 07:29:47;;;;;;;6.97;4.70;;;18.40;44.90;;;;;;5071143;28;20078;-79
2023/04/24 07:32:13;;;;;;;5.32;4.43;;;18.40;43.60;;;;;;5071254;28;20456;-79
2023/04/24 07:34:39;;;;;;;5.60;4.75;;;18.50;42.10;;;;;;5070936;28;20028;-79
2023/04/24 07:37:05;;;;;;;6.53;4.32;;;18.60;41.60;;;;;;5071233;28;20020;-79
2023/04/24 07:39:31;;;;;;;7.68;4.68;;;18.60;40.00;;;;;;5073168;28;20090;-79
2023/04/24 07:41:58;;;;;;;13.27;8.73;;;18.70;40.80;;;;;;5076198;28;20466;-79
2023/04/24 07:44:24;;;;;;;8.85;5.72;;;18.60;41.60;;;;;;5076257;28;20021;-79
2023/04/24 07:46:50;;;;;;;5.05;4.55;;;18.80;42.30;;;;;;5074791;28;20070;-79
2023/04/24 07:49:16;;;;;;;6.25;4.95;;;18.90;41.50;;;;;;5076187;28;20032;-79
2023/04/24 07:51:41;;;;;;;5.28;4.18;;;19.00;41.80;;;;;;5074594;28;20032;-79
2023/04/24 07:54:07;;;;;;;4.72;3.60;;;19.00;40.00;;;;;;5074851;28;20025;-79
2023/04/24 07:56:33;;;;;;;4.20;3.90;;;19.10;41.30;;;;;;5075914;28;20474;-79
2023/04/24 07:59:00;;;;;;;6.97;5.40;;;19.20;39.70;;;;;;5075875;28;20397;-79
2023/04/24 08:01:26;;;;;;;7.55;5.25;;;19.30;40.20;;;;;;5074517;28;20050;-79
2023/04/24 08:03:52;;;;;;;5.47;4.25;;;19.40;41.00;;;;;;5075805;28;20063;-79
2023/04/24 08:06:18;;;;;;;5.55;4.00;;;19.50;39.80;;;;;;5074572;28;20389;-80
2023/04/24 08:08:43;;;;;;;5.53;4.07;;;19.50;36.30;;;;;;5074445;28;20473;-79
2023/04/24 08:11:09;;;;;;;5.20;4.70;;;19.60;36.80;;;;;;5075740;28;20016;-79
2023/04/24 08:13:35;;;;;;;13.75;7.95;;;19.70;38.10;;;;;;5074184;28;20021;-79
2023/04/24 08:16:01;;;;;;;8.73;5.45;;;19.80;37.20;;;;;;5072072;28;20470;-79
2023/04/24 08:18:27;;;;;;;6.28;4.55;;;19.90;36.40;;;;;;5075074;28;20017;-79
2023/04/24 08:20:52;;;;;;;6.50;3.85;;;19.80;35.50;;;;;;5074025;28;20102;-79
2023/04/24 08:23:18;;;;;;;5.45;3.78;;;19.60;35.70;;;;;;5073392;28;20025;-80
2023/04/24 08:25:44;;;;;;;7.22;4.47;;;19.70;35.60;;;;;;5052837;28;20047;-79
2023/04/24 08:28:10;;;;;;;7.30;4.85;;;19.80;36.70;;;;;;5055754;28;20028;-80
2023/04/24 08:30:36;;;;;;;5.57;4.03;;;20.00;36.30;;;;;;5061802;28;20037;-80
2023/04/24 08:33:02;;;;;;;5.20;3.85;;;20.10;37.00;;;;;;5054346;28;20052;-80
2023/04/24 08:35:27;;;;;;;5.65;3.72;;;20.10;37.00;;;;;;5054386;28;20037;-80
2023/04/24 08:37:53;;;;;;;5.15;4.18;;;20.10;36.90;;;;;;5054238;28;20025;-80
2023/04/24 08:40:26;;;;;;;4.00;3.60;;;20.20;36.10;;;;;;5053022;28;20040;-79
2023/04/24 08:42:54;;;;;;;7.63;3.97;;;20.30;34.70;;;;;;5054193;28;20025;-80
2023/04/24 08:45:20;;;;;;;4.28;3.90;;;20.40;34.90;;;;;;5053908;28;20033;-80
2023/04/24 08:47:46;;;;;;;5.55;4.65;;;20.40;35.00;;;;;;5052773;28;20098;-79
2023/04/24 08:50:15;;;;;;;6.13;4.18;;;20.40;36.20;;;;;;5051897;28;20445;-80
2023/04/24 08:52:42;;;;;;;6.13;4.00;;;20.50;36.30;;;;;;5052443;28;20063;-80
2023/04/24 08:55:09;;;;;;;4.75;3.97;;;20.50;35.30;;;;;;5053618;28;20025;-80
2023/04/24 08:57:35;;;;;;;4.78;3.53;;;20.70;35.10;;;;;;5053186;28;20087;-80
2023/04/24 09:00:03;;;;;;;5.18;3.90;;;20.80;34.70;;;;;;5075640;28;20028;-80
2023/04/24 09:02:29;;;;;;;4.07;3.78;;;20.70;33.00;;;;;;5072615;28;20024;-80
2023/04/24 09:04:56;;;;;;;4.95;4.22;;;20.70;33.70;;;;;;5072173;28;20123;-80
2023/04/24 09:07:25;;;;;;;5.00;4.22;;;20.70;34.40;;;;;;5071333;28;20013;-80
2023/04/24 09:09:52;;;;;;;4.45;3.80;;;20.60;35.90;;;;;;5071248;28;20025;-80
2023/04/24 09:12:18;;;;;;;4.43;3.90;;;20.80;36.60;;;;;;5072682;28;20020;-80
2023/04/24 09:14:45;;;;;;;6.50;3.65;;;20.80;36.40;;;;;;5072873;28;20474;-80
2023/04/24 09:17:13;;;;;;;6.35;4.05;;;20.70;35.60;;;;;;5073019;28;20013;-80
2023/04/24 09:19:39;;;;;;;8.60;4.55;;;20.90;35.90;;;;;;5073760;28;20033;-80
2023/04/24 09:22:06;;;;;;;5.03;3.65;;;21.00;35.40;;;;;;5074360;28;20025;-80
2023/04/24 09:24:33;;;;;;;3.90;3.60;;;21.00;33.20;;;;;;5074206;28;20072;-80
2023/04/24 09:27:01;;;;;;;5.25;3.88;;;21.20;33.80;;;;;;5074264;28;20497;-80
2023/04/24 09:29:27;;;;;;;4.43;3.42;;;21.40;33.50;;;;;;5074293;28;20025;-80
2023/04/24 09:31:52;;;;;;;6.32;3.53;;;21.30;33.70;;;;;;5072571;28;20028;-80
2023/04/24 09:34:26;;;;;;;3.42;3.13;;;21.40;33.20;;;;;;5074054;28;20044;-80
2023/04/24 09:36:53;;;;;;;3.83;3.28;;;21.40;32.60;;;;;;5072665;28;20059;-80
2023/04/24 09:39:22;;;;;;;3.40;3.20;;;21.20;33.70;;;;;;5073942;28;20029;-80
2023/04/24 09:41:58;;;;;;;4.40;3.70;;;21.20;32.80;;;;;;5072585;28;20058;-80
2023/04/24 09:44:28;;;;;;;6.25;3.85;;;21.20;33.20;;;;;;5072646;28;20024;-81
2023/04/24 09:46:58;;;;;;;5.72;3.65;;;21.30;34.50;;;;;;5073837;28;20025;-80
2023/04/24 09:49:26;;;;;;;4.22;3.25;;;21.50;35.30;;;;;;5072574;28;20031;-80
2023/04/24 09:52:01;;;;;;;4.57;4.07;;;21.50;32.60;;;;;;5072454;28;20021;-80
2023/04/24 09:54:27;;;;;;;6.00;3.30;;;21.30;32.80;;;;;;5072371;28;20490;-80
2023/04/24 09:56:54;;;;;;;3.42;3.13;;;21.40;32.50;;;;;;5072571;28;20063;-80
2023/04/24 09:59:20;;;;;;;3.35;3.05;;;21.50;32.90;;;;;;5072197;28;20032;-80
2023/04/24 10:01:48;;;;;;;17.02;3.80;;;21.40;31.50;;;;;;5072993;28;20062;-80
2023/04/24 10:04:21;;;;;;;5.45;3.28;;;21.40;29.20;;;;;;5071848;28;20071;-80
2023/04/24 10:06:48;;;;;;;6.15;3.78;;;21.30;30.50;;;;;;5072075;28;20028;-80
2023/04/24 10:09:15;;;;;;;3.83;3.33;;;21.60;34.60;;;;;;5079143;28;20020;-81
2023/04/24 10:11:46;;;;;;;4.43;3.30;;;21.40;31.10;;;;;;5093688;28;20464;-80
2023/04/24 10:14:14;;;;;;;4.35;3.65;;;21.50;31.80;;;;;;5093554;28;20089;-80
2023/04/24 10:16:40;;;;;;;4.40;3.38;;;21.60;31.80;;;;;;5093415;28;20103;-81
2023/04/24 10:19:06;;;;;;;3.38;3.00;;;21.50;33.00;;;;;;5093440;28;20111;-81
2023/04/24 10:21:33;;;;;;;6.80;3.90;;;21.50;31.20;;;;;;5092313;28;20021;-79
2023/04/24 10:24:03;;;;;;;7.60;3.70;;;21.40;30.80;;;;;;5092158;28;20028;-79
2023/04/24 10:26:29;;;;;;;5.72;3.92;;;21.10;33.40;;;;;;5091907;28;20113;-78
2023/04/24 10:28:58;;;;;;;5.40;4.10;;;20.80;34.40;;;;;;5092061;28;20027;-78
2023/04/24 10:31:24;;;;;;;4.13;3.83;;;20.70;34.80;;;;;;5093601;28;20049;-79
2023/04/24 10:33:51;;;;;;;4.82;4.28;;;20.80;34.00;;;;;;5093043;28;20044;-78
2023/04/24 10:36:19;;;;;;;4.40;4.00;;;20.90;33.80;;;;;;5093291;28;20489;-77
2023/04/24 10:38:48;;;;;;;4.88;3.88;;;21.20;36.30;;;;;;5081473;28;20021;-78
2023/04/24 10:41:19;;;;;;;3.63;3.33;;;21.50;35.40;;;;;;5072196;28;20016;-77
2023/04/24 10:43:45;;;;;;;5.38;3.63;;;21.80;34.20;;;;;;5071381;28;20021;-77
2023/04/24 10:46:16;;;;;;;6.57;3.47;;;21.90;33.30;;;;;;5070706;28;20033;-77
2023/04/24 10:48:55;;;;;;;4.85;4.35;;;21.70;32.80;;;;;;5070738;28;20028;-75
2023/04/24 10:51:22;;;;;;;4.28;3.88;;;21.60;33.70;;;;;;5068588;28;20046;-75
2023/04/24 10:53:51;;;;;;;7.55;4.50;;;21.50;34.30;;;;;;5068618;28;20032;-74
2023/04/24 10:56:17;;;;;;;4.85;4.05;;;21.40;34.00;;;;;;5067132;28;20013;-76
2023/04/24 10:58:50;;;;;;;6.03;4.70;;;21.40;33.80;;;;;;5067361;28;20036;-75
2023/04/24 11:01:38;;;;;;;4.93;4.22;;;21.40;33.80;;;;;;5070254;28;20079;-75
2023/04/24 11:04:03;;;;;;;4.65;4.22;;;21.40;33.80;;;;;;5069647;28;20504;-77
2023/04/24 11:06:36;;;;;;;7.10;4.30;;;21.60;34.00;;;;;;5070933;28;20056;-76
2023/04/24 11:09:15;;;;;;;4.22;3.83;;;21.70;33.70;;;;;;5072065;28;20154;-77
2023/04/24 11:11:46;;;;;;;8.48;3.50;;;21.90;34.50;;;;;;5072304;28;20025;-78
2023/04/24 11:14:15;;;;;;;6.53;4.07;;;22.10;32.50;;;;;;5079496;28;20039;-78
2023/04/24 11:16:56;;;;;;;5.80;4.05;;;22.10;32.10;;;;;;5087558;28;20112;-79
2023/04/24 11:19:28;;;;;;;4.90;3.85;;;22.10;33.40;;;;;;5074585;28;20040;-79
2023/04/24 11:22:01;;;;;;;4.70;4.20;;;22.20;33.60;;;;;;5072899;28;20454;-78
2023/04/24 11:24:40;;;;;;;4.28;3.75;;;22.20;33.80;;;;;;5073293;28;20020;-78
2023/04/24 11:27:22;;;;;;;3.80;3.50;;;21.90;33.00;;;;;;5073424;28;20021;-78
2023/04/24 11:29:57;;;;;;;4.68;3.88;;;22.10;33.40;;;;;;5074610;28;20021;-78
2023/04/24 11:32:35;;;;;;;5.35;4.22;;;22.20;34.90;;;;;;5074502;28;20079;-78
2023/04/24 11:35:16;;;;;;;5.22;3.65;;;22.30;34.50;;;;;;5071209;28;20024;-79
2023/04/24 11:37:50;;;;;;;5.95;4.65;;;22.40;34.50;;;;;;5069974;28;20025;-78
2023/04/24 11:40:22;;;;;;;3.97;3.58;;;22.60;33.60;;;;;;5070378;28;20078;-80
2023/04/24 11:42:50;;;;;;;5.72;3.45;;;22.60;32.70;;;;;;5073028;28;20020;-78
2023/04/24 11:45:24;;;;;;;4.95;3.97;;;22.70;32.70;;;;;;5070390;28;20020;-79
2023/04/24 11:47:50;;;;;;;5.50;4.13;;;22.70;31.20;;;;;;5074025;28;20031;-78
2023/04/24 11:50:18;;;;;;;3.67;3.30;;;22.90;32.20;;;;;;5069939;28;20051;-79
2023/04/24 11:52:46;;;;;;;4.80;3.47;;;22.80;31.60;;;;;;5071496;28;20028;-78
2023/04/24 11:55:15;;;;;;;4.63;3.63;;;22.80;31.40;;;;;;5072893;28;20153;-77
2023/04/24 11:57:45;;;;;;;3.42;3.20;;;22.90;32.10;;;;;;5073424;28;20028;-78
2023/04/24 12:00:33;;;;;;;5.38;3.13;;;22.80;30.40;;;;;;5071431;28;20032;-78
2023/04/24 12:03:11;;;;;;;3.80;3.38;;;23.00;31.70;;;;;;5073196;28;20120;-79
2023/04/24 12:05:38;;;;;;;4.63;3.25;;;23.00;31.70;;;;;;5071387;28;20489;-79
2023/04/24 12:08:04;;;;;;;3.47;3.17;;;23.10;30.20;;;;;;5074750;28;20027;-79
2023/04/24 12:10:31;;;;;;;4.50;2.85;;;22.90;28.60;;;;;;5075191;28;20028;-78
2023/04/24 12:12:58;;;;;;;6.88;4.13;;;22.80;28.50;;;;;;5073157;28;20021;-79
2023/04/24 12:15:24;;;;;;;5.70;3.53;;;22.80;29.80;;;;;;5074195;28;20021;-79
2023/04/24 12:17:54;;;;;;;3.50;3.20;;;22.80;30.80;;;;;;5070060;28;20035;-78
2023/04/24 12:20:29;;;;;;;7.35;3.95;;;22.60;31.40;;;;;;5074826;28;20047;-79
2023/04/24 12:22:57;;;;;;;5.97;3.80;;;22.70;31.50;;;;;;5072456;28;20020;-78
2023/04/24 12:25:25;;;;;;;4.38;3.60;;;22.50;31.20;;;;;;5072210;28;20482;-78
2023/04/24 12:28:11;;;;;;;4.38;3.70;;;22.60;32.00;;;;;;5075322;28;20078;-79
2023/04/24 12:30:48;;;;;;;5.65;4.05;;;22.40;32.00;;;;;;5074008;28;20367;-78
2023/04/24 12:33:21;;;;;;;5.05;4.43;;;22.50;33.30;;;;;;5073965;28;20045;-78
2023/04/24 12:35:53;;;;;;;9.77;5.10;;;22.50;35.50;;;;;;5075497;28;20028;-78
2023/04/24 12:38:24;;;;;;;9.35;4.35;;;22.50;37.90;;;;;;5074748;28;20025;-78
2023/04/24 12:41:02;;;;;;;6.03;5.13;;;22.40;38.00;;;;;;5074021;28;20394;-78
2023/04/24 12:43:28;;;;;;;7.80;4.55;;;22.30;39.10;;;;;;5075172;28;20023;-79